Terminal Aerodrome Forecast
Issued by NWS

Current Version | Previous Version | Graphics & Text | Print | Product List | Glossary On
Versions: 1 2 3 4 5 6 7 8 9 10 11 12 13 14 15 16 17 18 19 20 21 22 23 24 25 26 27 28 29 30
000
FTUS41 KPBZ 220058 AAA
TAFHLG
TAF AMD
KHLG 220058Z 2201/2224 36008KT P6SM VCSH OVC015
     FM220700 34003KT 3SM BR SCT006 BKN015
      TEMPO 2208/2212 2SM BR BKN006
     FM221400 33004KT P6SM BKN025
     FM221600 32005KT P6SM VCSH BKN035=

USA.gov is the U.S. government's official web portal to all federal, state and local government web resources and services.